createdAt,value
2022-10-30T00:00:23.935Z,12.62
2022-10-30T00:15:24.150Z,13.05
2022-10-30T00:30:23.882Z,12.38
2022-10-30T00:45:24.067Z,12.40
2022-10-30T01:00:24.145Z,12.20
2022-10-30T01:15:23.945Z,12.08
2022-10-30T01:30:23.964Z,12.23
2022-10-30T01:45:23.980Z,12.10
2022-10-30T02:00:24.033Z,12.23
2022-10-30T02:15:23.924Z,11.90
2022-10-30T02:30:24.241Z,11.85
2022-10-30T02:45:23.895Z,11.67
2022-10-30T03:00:24.753Z,11.65
2022-10-30T03:15:24.688Z,11.50
2022-10-30T03:30:24.524Z,11.67
2022-10-30T03:45:24.194Z,11.58
2022-10-30T04:00:39.756Z,11.77
2022-10-30T04:15:23.382Z,11.40
2022-10-30T04:30:23.679Z,11.38
2022-10-30T04:45:23.395Z,11.20
2022-10-30T05:00:27.535Z,11.33
2022-10-30T05:15:23.392Z,11.07
2022-10-30T05:30:24.497Z,10.73
2022-10-30T05:45:23.596Z,10.57
2022-10-30T06:00:29.827Z,10.73
2022-10-30T06:15:23.694Z,10.77
2022-10-30T06:30:24.316Z,10.52
2022-10-30T06:45:23.934Z,10.48
2022-10-30T07:00:31.064Z,10.73
2022-10-30T07:15:23.633Z,10.58
2022-10-30T07:30:29.699Z,10.62
2022-10-30T07:45:23.847Z,10.80
2022-10-30T08:00:37.378Z,11.10
2022-10-30T08:15:24.124Z,11.30
2022-10-30T08:30:26.570Z,11.60
2022-10-30T08:45:28.137Z,11.73
2022-10-30T09:00:32.206Z,12.12
2022-10-30T09:15:24.051Z,12.55
2022-10-30T09:30:23.931Z,12.95
2022-10-30T09:45:29.196Z,13.57
2022-10-30T10:00:24.552Z,14.50
2022-10-30T10:15:23.967Z,14.98
2022-10-30T10:30:24.083Z,15.40
2022-10-30T10:45:24.036Z,15.92
2022-10-30T11:00:38.364Z,16.27
2022-10-30T11:15:24.122Z,17.15
2022-10-30T11:30:24.250Z,17.35
2022-10-30T11:45:23.916Z,17.87
2022-10-30T12:00:32.675Z,18.10
2022-10-30T12:15:23.887Z,18.17
2022-10-30T12:30:26.489Z,18.40
2022-10-30T12:45:23.944Z,18.77
2022-10-30T13:00:25.915Z,19.40
2022-10-30T13:15:24.105Z,19.65
2022-10-30T13:30:27.447Z,19.92
2022-10-30T13:45:24.302Z,19.92
2022-10-30T14:00:33.386Z,19.90
2022-10-30T14:15:23.258Z,19.98
2022-10-30T14:30:23.408Z,19.90
2022-10-30T14:45:23.630Z,19.50
2022-10-30T15:00:35.085Z,19.18
2022-10-30T15:15:23.479Z,18.83
2022-10-30T15:30:23.669Z,18.22
2022-10-30T15:45:23.596Z,18.03
2022-10-30T16:00:34.628Z,17.60
2022-10-30T16:15:23.596Z,17.17
2022-10-30T16:30:23.665Z,16.73
2022-10-30T16:45:24.874Z,16.42
2022-10-30T17:00:27.029Z,16.08
2022-10-30T17:15:23.382Z,15.75
2022-10-30T17:19:04.680Z,17.50
2022-10-30T17:33:53.608Z,15.53
2022-10-30T17:48:53.385Z,15.12
2022-10-30T18:03:53.444Z,15.10
2022-10-30T18:15:23.539Z,14.87
2022-10-30T18:30:28.193Z,14.32
2022-10-30T18:45:23.541Z,14.50
2022-10-30T19:00:23.624Z,14.17
2022-10-30T19:15:23.592Z,13.95
2022-10-30T19:30:23.578Z,13.70
2022-10-30T19:45:23.852Z,13.58
2022-10-30T20:00:27.974Z,13.67
2022-10-30T20:15:23.884Z,13.18
2022-10-30T20:30:23.824Z,12.98
2022-10-30T20:45:23.582Z,13.07
2022-10-30T21:00:23.665Z,12.60
2022-10-30T21:15:23.715Z,12.38
2022-10-30T21:30:25.550Z,12.30
2022-10-30T21:45:23.862Z,12.10
2022-10-30T22:00:23.712Z,11.95
2022-10-30T22:15:24.239Z,11.90
2022-10-30T22:30:23.897Z,12.00
2022-10-30T22:45:23.863Z,11.65
2022-10-30T23:00:35.235Z,13.00
2022-10-30T23:15:24.397Z,11.12
2022-10-30T23:30:23.984Z,10.88
2022-10-30T23:45:24.072Z,10.80
